createdAt,value
2023-05-24T00:01:57.104Z,5.22
2023-05-24T00:06:13.536Z,5.35
2023-05-24T00:10:29.811Z,5.50
2023-05-24T00:14:46.083Z,5.03
2023-05-24T00:19:02.465Z,5.25
2023-05-24T00:23:18.840Z,5.55
2023-05-24T00:27:37.460Z,5.65
2023-05-24T00:31:53.776Z,6.15
2023-05-24T00:36:10.300Z,5.22
2023-05-24T00:40:26.631Z,5.55
2023-05-24T00:44:42.990Z,6.28
2023-05-24T00:49:00.696Z,7.22
2023-05-24T00:53:17.264Z,6.55
2023-05-24T00:57:33.983Z,7.30
2023-05-24T01:01:50.355Z,6.80
2023-05-24T01:06:08.631Z,7.85
2023-05-24T01:10:46.497Z,8.30
2023-05-24T01:15:10.733Z,8.00
2023-05-24T01:19:32.974Z,7.72
2023-05-24T01:23:52.233Z,8.05
2023-05-24T01:28:11.822Z,7.50
2023-05-24T01:32:28.859Z,7.30
2023-05-24T01:36:45.182Z,7.62
2023-05-24T01:41:08.666Z,8.93
2023-05-24T01:45:31.336Z,8.23
2023-05-24T01:49:51.565Z,9.63
2023-05-24T01:54:08.118Z,9.93
2023-05-24T01:58:26.515Z,10.35
2023-05-24T02:02:43.113Z,11.07
2023-05-24T02:06:59.545Z,10.73
2023-05-24T02:11:15.824Z,10.88
2023-05-24T02:15:32.269Z,11.40
2023-05-24T02:19:48.656Z,12.07
2023-05-24T02:24:05.149Z,11.48
2023-05-24T02:28:21.434Z,12.02
2023-05-24T02:32:38.011Z,12.77
2023-05-24T02:36:54.623Z,12.82
2023-05-24T02:41:12.183Z,13.70
2023-05-24T02:45:28.424Z,13.35
2023-05-24T02:49:44.818Z,12.73
2023-05-24T02:54:01.430Z,13.48
2023-05-24T02:58:17.954Z,13.68
2023-05-24T03:02:38.678Z,13.82
2023-05-24T03:06:55.196Z,14.45
2023-05-24T03:11:11.472Z,12.77
2023-05-24T03:15:27.844Z,13.07
2023-05-24T03:19:44.490Z,13.85
2023-05-24T03:24:00.741Z,12.73
2023-05-24T03:28:16.958Z,13.23
2023-05-24T03:32:33.865Z,13.32
2023-05-24T03:36:50.262Z,12.63
2023-05-24T03:41:06.657Z,13.15
2023-05-24T03:45:34.425Z,14.07
2023-05-24T03:49:54.565Z,13.90
2023-05-24T03:54:10.910Z,13.73
2023-05-24T03:58:27.120Z,12.60
2023-05-24T04:02:43.546Z,12.05
2023-05-24T04:06:59.921Z,13.15
2023-05-24T04:11:16.133Z,12.77
2023-05-24T04:15:33.230Z,12.82
2023-05-24T04:19:49.476Z,12.95
2023-05-24T04:24:06.956Z,12.73
2023-05-24T04:28:23.934Z,12.45
2023-05-24T04:32:40.907Z,12.15
2023-05-24T04:36:58.157Z,13.27
2023-05-24T04:41:14.552Z,12.48
2023-05-24T04:45:33.022Z,12.10
2023-05-24T04:49:49.844Z,12.65
2023-05-24T04:54:09.336Z,12.45
2023-05-24T04:58:25.765Z,11.43
2023-05-24T05:02:42.115Z,11.63
2023-05-24T05:06:58.706Z,12.10
2023-05-24T05:11:15.468Z,12.05
2023-05-24T05:15:31.725Z,11.98
2023-05-24T05:19:47.906Z,12.10
2023-05-24T05:24:04.372Z,11.25
2023-05-24T05:28:20.893Z,11.02
2023-05-24T05:32:37.893Z,11.38
2023-05-24T05:36:54.293Z,11.48
2023-05-24T05:41:11.085Z,12.00
2023-05-24T05:45:27.403Z,11.68
2023-05-24T05:49:43.745Z,11.65
2023-05-24T05:54:00.057Z,12.23
2023-05-24T05:58:16.515Z,12.02
2023-05-24T06:02:32.943Z,12.32
2023-05-24T06:06:50.030Z,12.93
2023-05-24T06:11:06.579Z,12.57
2023-05-24T06:15:22.940Z,12.95
2023-05-24T06:19:39.295Z,13.02
2023-05-24T06:23:58.480Z,12.80
2023-05-24T06:28:14.800Z,12.60
2023-05-24T06:32:31.249Z,13.68
2023-05-24T06:36:48.770Z,10.60
2023-05-24T06:41:05.022Z,11.48
2023-05-24T06:45:21.381Z,12.45
2023-05-24T06:49:37.552Z,11.48
2023-05-24T06:53:53.854Z,12.68
2023-05-24T06:58:14.601Z,11.65
2023-05-24T07:02:30.827Z,10.80
2023-05-24T07:06:47.017Z,10.88
2023-05-24T07:11:03.506Z,11.93
2023-05-24T07:15:19.739Z,11.63
2023-05-24T07:19:36.237Z,10.55
2023-05-24T07:23:52.797Z,10.65
2023-05-24T07:28:09.221Z,9.75
2023-05-24T07:32:25.562Z,9.65
2023-05-24T07:36:42.608Z,9.82
2023-05-24T07:41:03.732Z,9.57
2023-05-24T07:45:19.979Z,9.65
2023-05-24T07:49:36.290Z,9.75
2023-05-24T07:53:52.917Z,9.02
2023-05-24T07:58:09.176Z,9.48
2023-05-24T08:02:26.912Z,9.18
2023-05-24T08:06:43.342Z,8.88
2023-05-24T08:10:59.668Z,7.80
2023-05-24T08:15:15.954Z,7.70
2023-05-24T08:19:36.089Z,7.85
2023-05-24T08:23:52.346Z,7.95
2023-05-24T08:28:08.962Z,7.53
2023-05-24T08:32:25.338Z,7.47
2023-05-24T08:36:44.033Z,7.22
2023-05-24T08:41:00.612Z,6.55
2023-05-24T08:45:17.595Z,6.28
2023-05-24T08:49:34.526Z,7.12
2023-05-24T08:53:51.178Z,6.37
2023-05-24T08:58:07.877Z,5.97
2023-05-24T09:02:24.603Z,6.32
2023-05-24T09:06:41.098Z,6.47
2023-05-24T09:10:58.379Z,5.60
2023-05-24T09:15:14.836Z,6.22
2023-05-24T09:19:31.136Z,5.65
2023-05-24T09:23:47.370Z,5.68
2023-05-24T09:28:08.178Z,6.37
2023-05-24T09:32:24.963Z,5.82
2023-05-24T09:36:43.436Z,5.50
2023-05-24T09:41:08.788Z,5.80
2023-05-24T09:45:25.125Z,5.90
2023-05-24T09:49:43.731Z,5.20
2023-05-24T09:54:03.776Z,5.20
2023-05-24T09:58:20.214Z,5.30
2023-05-24T10:02:49.175Z,4.90
2023-05-24T10:07:09.196Z,5.87
2023-05-24T10:11:25.737Z,5.60
2023-05-24T10:15:42.688Z,4.72
2023-05-24T10:19:59.254Z,4.82
2023-05-24T10:24:20.033Z,5.62
2023-05-24T10:29:01.342Z,4.68
2023-05-24T10:33:18.712Z,4.65
2023-05-24T10:37:35.955Z,4.62
2023-05-24T10:41:56.288Z,4.57
2023-05-24T10:46:14.609Z,4.65
2023-05-24T10:50:31.335Z,5.45
2023-05-24T10:55:08.881Z,4.87
2023-05-24T10:59:38.172Z,4.80
2023-05-24T11:04:07.142Z,5.00
2023-05-24T11:08:44.042Z,4.57
2023-05-24T11:13:08.302Z,5.03
2023-05-24T11:17:24.902Z,4.32
2023-05-24T11:21:43.863Z,4.10
2023-05-24T11:26:00.247Z,4.60
2023-05-24T11:30:18.112Z,4.00
2023-05-24T11:34:35.337Z,4.30
2023-05-24T11:38:54.047Z,4.57
2023-05-24T11:43:16.639Z,3.97
2023-05-24T11:47:36.319Z,4.10
2023-05-24T11:51:57.906Z,4.15
2023-05-24T11:56:14.199Z,4.40
2023-05-24T12:00:30.938Z,4.32
2023-05-24T12:04:47.649Z,4.45
2023-05-24T12:09:06.242Z,4.28
2023-05-24T12:13:26.493Z,3.85
2023-05-24T12:17:43.541Z,3.97
2023-05-24T12:22:00.758Z,4.32
2023-05-24T12:26:22.927Z,4.00
2023-05-24T12:30:46.893Z,3.73
2023-05-24T12:35:05.425Z,3.67
2023-05-24T12:39:34.526Z,4.37
2023-05-24T12:43:52.931Z,3.97
2023-05-24T12:48:09.409Z,4.18
2023-05-24T12:52:26.847Z,4.10
2023-05-24T12:56:43.368Z,4.28
2023-05-24T13:00:59.686Z,4.10
2023-05-24T13:05:16.545Z,3.95
2023-05-24T13:09:34.521Z,4.12
2023-05-24T13:13:51.117Z,3.78
2023-05-24T13:18:07.559Z,3.70
2023-05-24T13:22:23.871Z,3.75
2023-05-24T13:26:40.223Z,3.47
2023-05-24T13:30:56.568Z,3.47
2023-05-24T13:35:12.923Z,3.83
2023-05-24T13:39:29.234Z,3.60
2023-05-24T13:43:45.713Z,3.40
2023-05-24T13:48:04.299Z,4.00
2023-05-24T13:52:20.720Z,3.67
2023-05-24T13:56:38.845Z,3.60
2023-05-24T14:00:56.466Z,3.40
2023-05-24T14:09:32.219Z,3.80
2023-05-24T14:18:09.116Z,3.20
2023-05-24T14:22:26.354Z,3.28
2023-05-24T14:26:42.729Z,3.67
2023-05-24T14:30:59.002Z,3.35
2023-05-24T14:35:15.383Z,3.85
2023-05-24T14:39:31.785Z,3.28
2023-05-24T14:43:48.153Z,3.40
2023-05-24T14:48:04.981Z,3.30
2023-05-24T14:52:21.669Z,3.53
2023-05-24T14:56:38.363Z,3.40
2023-05-24T15:00:54.943Z,3.10
2023-05-24T15:05:11.205Z,3.50
2023-05-24T15:09:27.600Z,3.50
2023-05-24T15:13:43.977Z,3.40
2023-05-24T15:18:00.472Z,3.35
2023-05-24T15:22:16.740Z,3.50
2023-05-24T15:26:33.020Z,3.40
2023-05-24T15:30:49.524Z,3.47
2023-05-24T15:35:07.020Z,3.60
2023-05-24T15:39:23.438Z,3.75
2023-05-24T15:43:39.736Z,3.75
2023-05-24T15:47:56.245Z,3.83
2023-05-24T15:52:12.650Z,3.25
2023-05-24T15:56:29.518Z,3.50
2023-05-24T16:00:45.984Z,3.95
2023-05-24T16:05:02.436Z,4.22
2023-05-24T16:09:18.739Z,4.03
2023-05-24T16:13:35.261Z,4.20
2023-05-24T16:17:51.668Z,3.85
2023-05-24T16:22:08.431Z,4.03
2023-05-24T16:26:24.805Z,4.12
2023-05-24T16:30:41.608Z,3.92
2023-05-24T16:34:58.194Z,4.07
2023-05-24T16:39:14.638Z,4.45
2023-05-24T16:43:30.952Z,3.75
2023-05-24T16:47:47.297Z,4.50
2023-05-24T16:52:04.196Z,3.97
2023-05-24T16:56:20.703Z,3.92
2023-05-24T17:00:37.022Z,3.80
2023-05-24T17:04:53.422Z,3.80
2023-05-24T17:09:09.817Z,3.85
2023-05-24T17:13:29.493Z,3.80
2023-05-24T17:17:45.959Z,4.47
2023-05-24T17:22:02.500Z,3.90
2023-05-24T17:26:18.820Z,3.70
2023-05-24T17:30:35.208Z,3.70
2023-05-24T17:34:51.633Z,3.60
2023-05-24T17:39:08.188Z,3.47
2023-05-24T17:43:28.942Z,3.42
2023-05-24T17:47:45.410Z,3.67
2023-05-24T17:52:02.022Z,3.45
2023-05-24T17:56:18.653Z,3.50
2023-05-24T18:00:35.035Z,3.72
2023-05-24T18:04:52.865Z,3.67
2023-05-24T18:09:09.865Z,3.58
2023-05-24T18:13:27.107Z,3.97
2023-05-24T18:17:43.461Z,3.72
2023-05-24T18:21:59.733Z,3.70
2023-05-24T18:26:16.123Z,3.60
2023-05-24T18:30:32.301Z,3.50
2023-05-24T18:34:48.550Z,4.10
2023-05-24T18:39:04.863Z,3.60
2023-05-24T18:43:21.142Z,3.40
2023-05-24T18:47:37.393Z,3.70
2023-05-24T18:51:53.756Z,3.40
2023-05-24T18:56:10.132Z,3.25
2023-05-24T19:00:27.143Z,4.10
2023-05-24T19:04:48.248Z,3.47
2023-05-24T19:09:04.678Z,3.40
2023-05-24T19:13:21.007Z,3.92
2023-05-24T19:17:37.272Z,4.32
2023-05-24T19:21:55.283Z,4.45
2023-05-24T19:26:11.585Z,4.50
2023-05-24T19:30:28.157Z,3.97
2023-05-24T19:34:45.936Z,4.07
2023-05-24T19:39:02.322Z,4.18
2023-05-24T19:43:20.189Z,4.70
2023-05-24T19:47:38.963Z,4.37
2023-05-24T19:52:06.672Z,5.03
2023-05-24T19:56:23.922Z,4.75
2023-05-24T20:00:40.247Z,4.05
2023-05-24T20:04:58.717Z,4.55
2023-05-24T20:09:18.978Z,3.80
2023-05-24T20:13:35.316Z,3.83
2023-05-24T20:17:51.683Z,4.18
2023-05-24T20:22:07.986Z,4.28
2023-05-24T20:26:24.326Z,4.93
2023-05-24T20:30:41.402Z,4.90
2023-05-24T20:34:57.779Z,4.60
2023-05-24T20:39:14.157Z,4.75
2023-05-24T20:43:30.389Z,5.97
2023-05-24T20:47:46.770Z,5.45
2023-05-24T20:52:03.722Z,5.65
2023-05-24T20:56:21.628Z,5.75
2023-05-24T21:00:39.958Z,5.18
2023-05-24T21:04:57.050Z,5.10
2023-05-24T21:09:17.385Z,5.95
2023-05-24T21:13:33.678Z,5.35
2023-05-24T21:17:50.073Z,5.55
2023-05-24T21:22:06.744Z,5.30
2023-05-24T21:26:23.081Z,5.20
2023-05-24T21:30:39.411Z,5.68
2023-05-24T21:34:55.673Z,5.50
2023-05-24T21:39:12.316Z,5.85
2023-05-24T21:43:28.621Z,5.95
2023-05-24T21:47:44.946Z,6.03
2023-05-24T21:52:01.228Z,6.65
2023-05-24T21:56:17.553Z,6.70
2023-05-24T22:00:33.817Z,6.80
2023-05-24T22:04:50.391Z,6.90
2023-05-24T22:09:07.524Z,7.43
2023-05-24T22:13:23.836Z,7.05
2023-05-24T22:17:41.354Z,7.32
2023-05-24T22:21:58.567Z,7.43
2023-05-24T22:26:17.026Z,7.20
2023-05-24T22:30:35.337Z,7.70
2023-05-24T22:34:51.663Z,7.70
2023-05-24T22:39:08.138Z,8.05
2023-05-24T22:43:24.384Z,8.05
2023-05-24T22:47:40.791Z,7.93
2023-05-24T22:51:57.081Z,7.50
2023-05-24T22:56:13.343Z,7.90
2023-05-24T23:00:29.502Z,7.78
2023-05-24T23:04:47.601Z,7.78
2023-05-24T23:09:05.251Z,7.50
2023-05-24T23:13:22.243Z,7.70
2023-05-24T23:17:38.604Z,7.57
2023-05-24T23:21:55.611Z,9.13
2023-05-24T23:26:11.837Z,8.68
2023-05-24T23:30:28.735Z,8.13
2023-05-24T23:34:44.979Z,8.38
2023-05-24T23:39:01.204Z,8.27
2023-05-24T23:43:17.452Z,8.25
2023-05-24T23:47:33.718Z,9.25
2023-05-24T23:51:50.086Z,9.35
2023-05-24T23:56:06.419Z,8.63
